createdAt,value
2022-10-01T00:06:05.253Z,8.44
2022-10-01T00:09:41.699Z,8.48
2022-10-01T00:14:43.450Z,8.50
2022-10-01T00:19:45.011Z,8.54
2022-10-01T00:24:47.304Z,8.56
2022-10-01T00:29:49.246Z,8.58
2022-10-01T00:34:50.719Z,8.54
2022-10-01T00:39:52.328Z,8.46
2022-10-01T00:44:54.136Z,8.37
2022-10-01T00:50:07.253Z,8.35
2022-10-01T00:55:18.890Z,8.37
2022-10-01T01:00:21.465Z,8.42
2022-10-01T01:05:23.731Z,8.43
2022-10-01T01:10:33.041Z,8.39
2022-10-01T01:15:46.486Z,8.33
2022-10-01T01:21:00.435Z,8.23
2022-10-01T01:26:14.006Z,8.26
2022-10-01T01:31:23.096Z,8.38
2022-10-01T01:36:30.429Z,8.51
2022-10-01T01:41:35.837Z,8.60
2022-10-01T01:46:41.860Z,8.68
2022-10-01T01:51:52.287Z,8.71
2022-10-01T01:56:56.475Z,8.75
2022-10-01T02:01:59.057Z,8.79
2022-10-01T02:07:16.144Z,8.88
2022-10-01T02:12:17.712Z,9.01
2022-10-01T02:17:25.192Z,9.17
2022-10-01T02:22:47.238Z,9.46
2022-10-01T02:27:59.180Z,9.76
2022-10-01T02:33:02.246Z,10.03
2022-10-01T02:38:07.033Z,10.23
2022-10-01T02:43:21.132Z,10.39
2022-10-01T02:48:22.636Z,10.55
2022-10-01T02:53:43.641Z,10.66
2022-10-01T02:58:45.161Z,10.75
2022-10-01T03:03:46.570Z,10.85
2022-10-01T03:08:48.012Z,10.93
2022-10-01T03:13:49.840Z,10.99
2022-10-01T03:18:51.303Z,11.08
2022-10-01T03:23:52.787Z,11.16
2022-10-01T03:28:54.278Z,11.21
2022-10-01T03:33:57.994Z,11.25
2022-10-01T03:38:59.479Z,11.30
2022-10-01T03:44:01.204Z,11.36
2022-10-01T03:49:03.394Z,11.47
2022-10-01T03:54:07.151Z,11.54
2022-10-01T03:59:12.105Z,11.64
2022-10-01T04:04:13.613Z,11.79
2022-10-01T04:09:15.079Z,11.96
2022-10-01T04:14:16.588Z,12.06
2022-10-01T04:19:19.251Z,12.11
2022-10-01T04:24:20.686Z,12.25
2022-10-01T04:29:22.248Z,12.42
2022-10-01T04:34:43.729Z,12.57
2022-10-01T04:39:45.322Z,12.62
2022-10-01T04:44:47.346Z,12.65
2022-10-01T04:49:49.123Z,12.62
2022-10-01T04:54:52.349Z,12.53
2022-10-01T04:59:53.836Z,12.37
2022-10-01T05:04:56.217Z,12.28
2022-10-01T05:09:58.692Z,12.19
2022-10-01T05:15:00.206Z,12.10
2022-10-01T05:20:03.745Z,12.04
2022-10-01T05:25:07.309Z,11.97
2022-10-01T05:30:10.672Z,11.90
2022-10-01T05:35:12.140Z,11.83
2022-10-01T05:40:13.866Z,11.77
2022-10-01T05:45:15.452Z,11.73
2022-10-01T05:50:16.955Z,11.71
2022-10-01T05:55:19.215Z,11.68
2022-10-01T06:00:21.630Z,11.72
2022-10-01T06:05:23.866Z,11.72
2022-10-01T06:10:25.849Z,11.74
2022-10-01T06:15:27.905Z,11.76
2022-10-01T06:20:29.695Z,11.74
2022-10-01T06:25:31.329Z,11.76
2022-10-01T06:30:35.635Z,11.76
2022-10-01T06:35:42.652Z,11.80
2022-10-01T06:40:44.274Z,11.81
2022-10-01T06:45:45.815Z,11.85
2022-10-01T06:50:49.624Z,11.86
2022-10-01T06:55:51.276Z,11.85
2022-10-01T07:00:59.085Z,11.89
2022-10-01T07:06:02.970Z,11.95
2022-10-01T07:11:05.131Z,11.98
2022-10-01T07:16:06.679Z,12.01
2022-10-01T07:21:08.365Z,12.05
2022-10-01T07:26:10.265Z,12.10
2022-10-01T07:31:11.830Z,12.14
2022-10-01T07:36:13.788Z,12.18
2022-10-01T07:41:17.326Z,12.26
2022-10-01T07:46:19.035Z,12.32
2022-10-01T07:51:21.034Z,12.35
2022-10-01T07:56:22.836Z,12.35
2022-10-01T08:01:25.135Z,12.33
2022-10-01T08:06:26.859Z,12.33
2022-10-01T08:11:28.296Z,12.31
2022-10-01T08:16:33.398Z,12.29
2022-10-01T08:21:36.467Z,12.26
2022-10-01T08:26:38.374Z,12.31
2022-10-01T08:31:41.092Z,12.34
2022-10-01T08:36:42.865Z,12.34
2022-10-01T08:41:56.367Z,12.35
2022-10-01T08:47:04.898Z,12.35
2022-10-01T08:52:25.668Z,12.35
2022-10-01T08:57:34.804Z,12.33
2022-10-01T09:02:40.340Z,12.34
2022-10-01T09:07:47.722Z,12.30
2022-10-01T09:13:11.311Z,12.30
2022-10-01T09:18:47.116Z,12.38
2022-10-01T09:24:02.150Z,12.45
2022-10-01T09:29:09.553Z,12.57
2022-10-01T09:34:29.984Z,12.59
2022-10-01T09:39:54.964Z,12.50
2022-10-01T09:45:00.165Z,12.62
2022-10-01T09:50:06.624Z,12.70
2022-10-01T09:55:20.344Z,12.79
2022-10-01T10:00:25.081Z,13.09
2022-10-01T10:05:38.938Z,13.36
2022-10-01T10:10:49.218Z,13.44
2022-10-01T10:15:53.699Z,13.11
2022-10-01T10:20:56.959Z,13.23
2022-10-01T10:26:01.076Z,13.38
2022-10-01T10:31:02.720Z,13.55
2022-10-01T10:36:06.292Z,13.67
2022-10-01T10:41:16.826Z,13.73
2022-10-01T10:46:35.439Z,13.86
2022-10-01T10:51:45.337Z,13.90
2022-10-01T10:56:55.327Z,13.87
2022-10-01T11:01:56.902Z,13.74
2022-10-01T11:07:01.639Z,13.67
2022-10-01T11:12:19.183Z,13.65
2022-10-01T11:17:31.234Z,13.56
2022-10-01T11:23:05.881Z,13.53
2022-10-01T11:28:22.101Z,13.67
2022-10-01T11:33:50.504Z,13.78
2022-10-01T11:39:05.666Z,13.99
2022-10-01T11:44:15.540Z,14.18
2022-10-01T11:49:55.667Z,14.30
2022-10-01T11:55:37.561Z,14.44
2022-10-01T12:00:41.338Z,14.47
2022-10-01T12:05:43.213Z,14.70
2022-10-01T12:10:52.980Z,14.90
2022-10-01T12:16:10.142Z,14.95
2022-10-01T12:21:23.682Z,15.04
2022-10-01T12:27:20.077Z,15.18
2022-10-01T12:32:41.717Z,15.26
2022-10-01T12:38:15.607Z,15.16
2022-10-01T12:43:50.821Z,15.31
2022-10-01T12:49:04.209Z,15.63
2022-10-01T12:54:32.257Z,15.72
2022-10-01T13:00:04.852Z,15.74
2022-10-01T13:05:24.511Z,15.99
2022-10-01T13:10:48.935Z,16.11
2022-10-01T13:16:04.039Z,16.09
2022-10-01T13:21:17.767Z,16.09
2022-10-01T13:26:23.306Z,16.14
2022-10-01T13:31:37.303Z,16.20
2022-10-01T13:36:40.012Z,16.26
2022-10-01T13:41:42.288Z,16.11
2022-10-01T13:47:03.096Z,15.98
2022-10-01T13:52:06.091Z,16.19
2022-10-01T13:57:43.566Z,16.32
2022-10-01T14:03:00.330Z,16.40
2022-10-01T14:08:21.436Z,16.36
2022-10-01T14:13:42.595Z,16.45
2022-10-01T14:18:48.416Z,16.49
2022-10-01T14:24:28.452Z,16.40
2022-10-01T14:29:41.850Z,16.32
2022-10-01T14:34:50.578Z,16.21
2022-10-01T14:40:14.240Z,16.14
2022-10-01T14:45:19.503Z,16.41
2022-10-01T14:50:21.546Z,16.55
2022-10-01T14:55:24.677Z,16.55
2022-10-01T15:00:29.324Z,16.61
2022-10-01T15:05:36.882Z,16.61
2022-10-01T15:10:42.085Z,16.65
2022-10-01T15:15:43.911Z,16.66
2022-10-01T15:20:53.372Z,16.65
2022-10-01T15:25:56.682Z,16.55
2022-10-01T15:31:06.795Z,16.43
2022-10-01T15:36:18.929Z,16.41
2022-10-01T15:41:32.877Z,16.38
2022-10-01T15:46:35.855Z,16.35
2022-10-01T15:52:07.303Z,16.20
2022-10-01T15:57:14.889Z,16.14
2022-10-01T16:02:23.028Z,16.07
2022-10-01T16:07:30.512Z,16.12
2022-10-01T16:12:32.083Z,16.15
2022-10-01T16:17:37.575Z,16.10
2022-10-01T16:22:39.897Z,16.03
2022-10-01T16:27:47.379Z,15.93
2022-10-01T16:32:49.550Z,15.90
2022-10-01T16:37:54.248Z,15.87
2022-10-01T16:42:56.128Z,15.89
2022-10-01T16:48:00.786Z,15.86
2022-10-01T16:53:04.309Z,15.80
2022-10-01T16:58:09.034Z,15.81
2022-10-01T17:03:19.938Z,15.80
2022-10-01T17:08:21.610Z,15.78
2022-10-01T17:13:28.742Z,15.76
2022-10-01T17:18:30.315Z,15.73
2022-10-01T17:23:32.093Z,15.69
2022-10-01T17:28:34.060Z,15.60
2022-10-01T17:33:36.608Z,15.52
2022-10-01T17:38:40.340Z,15.43
2022-10-01T17:43:42.096Z,15.34
2022-10-01T17:48:43.808Z,15.19
2022-10-01T17:53:45.524Z,15.10
2022-10-01T17:58:47.232Z,14.98
2022-10-01T18:03:55.813Z,14.83
2022-10-01T18:08:57.463Z,14.69
2022-10-01T18:13:59.503Z,14.62
2022-10-01T18:24:24.424Z,14.45
2022-10-01T18:29:29.705Z,14.39
2022-10-01T18:34:42.147Z,14.34
2022-10-01T18:39:47.521Z,14.32
2022-10-01T18:44:58.202Z,14.29
2022-10-01T18:50:11.352Z,14.29
2022-10-01T18:55:36.888Z,14.32
2022-10-01T19:00:47.248Z,14.37
2022-10-01T19:06:16.356Z,14.38
2022-10-01T19:11:29.005Z,14.36
2022-10-01T19:16:36.083Z,14.36
2022-10-01T19:21:55.798Z,14.36
2022-10-01T19:27:21.649Z,14.40
2022-10-01T19:32:27.364Z,14.41
2022-10-01T19:37:36.876Z,14.45
2022-10-01T19:42:43.124Z,14.49
2022-10-01T19:47:52.122Z,14.55
2022-10-01T19:52:57.284Z,14.55
2022-10-01T19:57:59.527Z,14.55
2022-10-01T20:03:11.317Z,14.58
2022-10-01T20:08:16.183Z,14.61
2022-10-01T20:13:22.557Z,14.62
2022-10-01T20:18:47.846Z,14.65
2022-10-01T20:23:58.076Z,14.66
2022-10-01T20:28:59.503Z,14.68
2022-10-01T20:34:06.933Z,14.73
2022-10-01T20:39:25.387Z,14.78
2022-10-01T20:44:33.900Z,14.82
2022-10-01T20:49:56.126Z,14.81
2022-10-01T20:55:06.912Z,14.80
2022-10-01T21:00:21.600Z,14.83
2022-10-01T21:05:46.482Z,14.80
2022-10-01T21:10:55.802Z,14.75
2022-10-01T21:16:06.186Z,14.74
2022-10-01T21:21:16.920Z,14.76
2022-10-01T21:26:25.448Z,14.80
2022-10-01T21:31:45.019Z,14.84
2022-10-01T21:36:55.577Z,14.80
2022-10-01T21:42:06.126Z,14.76
2022-10-01T21:47:45.410Z,14.73
2022-10-01T21:53:31.881Z,14.74
2022-10-01T21:58:52.285Z,14.75
2022-10-01T22:04:29.093Z,14.76
2022-10-01T22:09:39.798Z,14.78
2022-10-01T22:14:43.839Z,14.78
2022-10-01T22:19:51.334Z,14.69
2022-10-01T22:24:54.465Z,14.54
2022-10-01T22:30:01.911Z,14.45
2022-10-01T22:35:09.596Z,14.42
2022-10-01T22:40:21.122Z,14.44
2022-10-01T22:45:29.797Z,14.51
2022-10-01T22:50:50.315Z,14.60
2022-10-01T22:55:57.088Z,14.67
2022-10-01T23:01:15.321Z,14.67
2022-10-01T23:06:34.685Z,14.65
2022-10-01T23:11:58.688Z,14.70
2022-10-01T23:17:09.203Z,14.75
2022-10-01T23:22:16.760Z,14.85
2022-10-01T23:27:27.230Z,14.92
2022-10-01T23:32:41.856Z,14.95
2022-10-01T23:37:57.468Z,14.96
2022-10-01T23:43:05.205Z,14.97
2022-10-01T23:48:15.610Z,15.00
2022-10-01T23:53:24.185Z,15.05
2022-10-01T23:58:30.150Z,15.07
